Time;durP1;ratioP1;P1;durP2;ratioP2;P2;SDS_P1;SDS_P2;PMS_P1;PMS_P2;Temp;Humidity;BMP_temperature;BMP_pressure;BME280_temperature;BME280_humidity;BME280_pressure;Samples;Min_cycle;Max_cycle;Signal;HPM_P1;HPM_P2
2023/01/26 00:01:08;;;;;;;35.90;15.95;;;0.60;99.90;;;;;;5041378;28;20037;-72
2023/01/26 00:03:34;;;;;;;38.65;16.98;;;0.60;99.90;;;;;;5039515;28;20053;-72
2023/01/26 00:06:04;;;;;;;40.60;16.73;;;0.50;99.90;;;;;;5030645;28;20041;-72
2023/01/26 00:08:30;;;;;;;38.35;17.27;;;0.50;99.90;;;;;;5048580;28;20128;-72
2023/01/26 00:10:56;;;;;;;39.20;17.27;;;0.50;99.90;;;;;;5022138;28;20045;-72
2023/01/26 00:13:21;;;;;;;37.13;16.42;;;0.50;99.90;;;;;;5052375;28;20126;-72
2023/01/26 00:15:47;;;;;;;44.90;18.20;;;0.50;99.90;;;;;;5029169;28;20053;-72
2023/01/26 00:18:13;;;;;;;38.75;17.50;;;0.50;99.90;;;;;;5016493;28;20043;-72
2023/01/26 00:20:39;;;;;;;39.53;17.10;;;0.70;99.90;;;;;;5050677;28;20472;-72
2023/01/26 00:23:05;;;;;;;37.65;16.45;;;0.40;99.90;;;;;;5048924;28;20072;-72
2023/01/26 00:25:31;;;;;;;37.45;16.90;;;0.50;99.90;;;;;;5022961;28;20045;-73
2023/01/26 00:27:56;;;;;;;37.80;16.85;;;0.60;99.90;;;;;;5048589;28;20072;-72
2023/01/26 00:30:22;;;;;;;39.13;17.40;;;0.60;99.90;;;;;;5020117;28;20049;-72
2023/01/26 00:32:48;;;;;;;37.97;16.65;;;0.60;99.90;;;;;;5033120;28;20049;-72
2023/01/26 00:35:14;;;;;;;38.45;16.88;;;0.90;99.90;;;;;;5021347;28;20401;-73
2023/01/26 00:37:42;;;;;;;41.20;17.60;;;0.60;99.90;;;;;;5054690;28;20454;-73
2023/01/26 00:40:09;;;;;;;38.83;16.58;;;0.60;99.90;;;;;;5054446;28;20481;-72
2023/01/26 00:42:35;;;;;;;44.45;19.05;;;0.60;99.90;;;;;;5036251;28;20556;-72
2023/01/26 00:45:01;;;;;;;37.03;16.30;;;0.60;99.90;;;;;;5051792;28;20037;-72
2023/01/26 00:47:27;;;;;;;42.75;18.20;;;0.60;99.90;;;;;;5037364;28;20037;-73
2023/01/26 00:49:52;;;;;;;39.85;17.95;;;0.60;99.90;;;;;;5036360;28;20045;-73
2023/01/26 00:52:18;;;;;;;39.00;16.38;;;0.60;99.90;;;;;;5051583;28;20048;-73
2023/01/26 00:54:44;;;;;;;44.50;20.08;;;1.00;99.90;;;;;;5023390;28;20084;-72
2023/01/26 00:57:09;;;;;;;36.03;17.20;;;0.70;99.90;;;;;;5045359;28;20047;-73
2023/01/26 00:59:36;;;;;;;43.13;19.13;;;0.70;99.90;;;;;;5048633;28;20486;-73
2023/01/26 01:02:02;;;;;;;44.15;18.80;;;0.70;99.90;;;;;;5023886;28;20401;-73
2023/01/26 01:04:29;;;;;;;50.45;19.67;;;0.70;99.90;;;;;;5031195;28;20037;-73
2023/01/26 01:06:56;;;;;;;44.67;18.65;;;0.60;99.90;;;;;;5017702;28;20410;-75
2023/01/26 01:09:22;;;;;;;38.83;17.20;;;0.60;99.90;;;;;;5036201;28;20037;-73
2023/01/26 01:11:47;;;;;;;39.10;17.27;;;0.60;99.90;;;;;;5042835;28;20060;-73
2023/01/26 01:14:14;;;;;;;48.58;19.88;;;0.70;99.90;;;;;;5044351;28;20057;-73
2023/01/26 01:16:41;;;;;;;43.58;19.05;;;0.70;99.90;;;;;;5033696;28;20041;-73
2023/01/26 01:19:07;;;;;;;43.28;18.35;;;0.70;99.90;;;;;;5037911;28;20048;-72
2023/01/26 01:21:33;;;;;;;46.35;18.90;;;0.60;99.90;;;;;;5038042;28;20045;-72
2023/01/26 01:23:59;;;;;;;41.08;17.73;;;0.60;99.90;;;;;;5035525;28;20044;-73
2023/01/26 01:26:26;;;;;;;41.92;18.00;;;0.60;99.90;;;;;;5052132;28;20079;-73
2023/01/26 01:28:55;;;;;;;46.35;18.48;;;1.20;99.90;;;;;;5040900;28;20394;-72
2023/01/26 01:31:21;;;;;;;44.67;19.15;;;0.70;99.90;;;;;;5015187;28;20042;-73
2023/01/26 01:33:47;;;;;;;42.28;18.00;;;0.60;99.90;;;;;;5035456;28;20037;-72
2023/01/26 01:36:15;;;;;;;39.38;17.25;;;0.60;99.90;;;;;;5036588;28;20033;-73
2023/01/26 01:38:42;;;;;;;41.35;17.98;;;0.60;99.90;;;;;;5046076;28;20080;-73
2023/01/26 01:41:08;;;;;;;47.85;18.85;;;0.70;99.90;;;;;;5017967;28;20076;-73
2023/01/26 01:43:34;;;;;;;38.60;15.88;;;0.70;99.90;;;;;;5033852;28;20420;-73
2023/01/26 01:46:09;;;;;;;41.20;17.05;;;0.70;99.90;;;;;;5037378;28;20048;-73
2023/01/26 01:48:44;;;;;;;39.38;16.38;;;0.70;99.90;;;;;;5045944;28;20087;-73
2023/01/26 01:51:18;;;;;;;43.13;16.20;;;0.70;99.90;;;;;;5001272;28;20128;-73
2023/01/26 01:53:49;;;;;;;37.60;15.43;;;0.70;99.90;;;;;;5040247;28;20052;-72
2023/01/26 01:56:21;;;;;;;36.97;16.10;;;0.70;99.90;;;;;;5001229;28;20092;-73
2023/01/26 01:58:50;;;;;;;35.90;16.13;;;1.70;99.90;;;;;;5017550;28;20390;-72
2023/01/26 02:01:16;;;;;;;34.42;14.63;;;2.70;99.90;;;;;;5035544;28;20502;-73
2023/01/26 02:03:45;;;;;;;36.03;15.68;;;0.80;99.90;;;;;;5017445;28;20049;-73
2023/01/26 02:06:19;;;;;;;29.67;13.90;;;0.80;99.90;;;;;;5017487;28;20108;-73
2023/01/26 02:08:46;;;;;;;33.00;13.52;;;0.90;99.90;;;;;;5033933;28;20060;-73
2023/01/26 02:11:25;;;;;;;31.55;12.98;;;2.20;99.90;;;;;;5038391;28;20045;-73
2023/01/26 02:13:51;;;;;;;29.77;12.77;;;0.90;99.90;;;;;;5031288;28;20052;-73
2023/01/26 02:16:17;;;;;;;28.75;12.40;;;0.90;99.90;;;;;;5054864;28;20044;-72
2023/01/26 02:18:44;;;;;;;30.23;13.05;;;0.90;99.90;;;;;;5046788;28;20136;-73
2023/01/26 02:21:14;;;;;;;27.95;12.50;;;0.90;99.90;;;;;;5031020;28;20045;-73
2023/01/26 02:24:09;;;;;;;29.58;12.55;;;1.00;99.90;;;;;;5019846;28;20049;-72
2023/01/26 02:26:36;;;;;;;29.50;12.50;;;1.00;99.90;;;;;;5023768;28;20054;-73
2023/01/26 02:29:06;;;;;;;26.35;12.43;;;1.00;99.90;;;;;;5015411;28;20084;-74
2023/01/26 02:31:32;;;;;;;30.73;12.57;;;1.00;99.90;;;;;;5036745;28;20074;-73
2023/01/26 02:33:57;;;;;;;26.90;11.20;;;1.00;99.90;;;;;;5028936;28;20049;-73
2023/01/26 02:36:26;;;;;;;24.98;11.80;;;2.50;99.90;;;;;;5029784;28;20075;-73
2023/01/26 02:39:16;;;;;;;28.05;11.98;;;1.00;99.90;;;;;;5022610;28;20127;-73
2023/01/26 02:44:28;;;;;;;27.50;11.93;;;0.90;99.90;;;;;;5031962;28;20442;-73
2023/01/26 02:46:55;;;;;;;27.42;12.75;;;1.00;99.90;;;;;;5036430;28;20044;-73
2023/01/26 02:52:05;;;;;;;23.15;11.05;;;1.00;99.90;;;;;;5028579;28;20048;-73
2023/01/26 02:57:14;;;;;;;28.45;12.43;;;0.90;99.90;;;;;;5035422;28;20444;-73
2023/01/26 02:59:40;;;;;;;30.50;12.88;;;1.00;99.90;;;;;;5040145;28;20045;-73
2023/01/26 03:02:06;;;;;;;25.92;12.60;;;1.00;99.90;;;;;;5016104;28;20506;-73
2023/01/26 03:04:32;;;;;;;31.75;12.88;;;1.00;99.90;;;;;;5026994;28;20513;-73
2023/01/26 03:07:06;;;;;;;28.42;12.65;;;1.00;99.90;;;;;;5146466;27;1411761;-72
2023/01/26 03:09:32;;;;;;;27.23;12.48;;;1.00;99.90;;;;;;5152961;27;20050;-72
2023/01/26 03:11:58;;;;;;;28.08;12.35;;;1.10;99.90;;;;;;5153674;27;20034;-72
2023/01/26 03:14:23;;;;;;;28.17;12.75;;;1.10;99.90;;;;;;5172303;27;20418;-72
2023/01/26 03:16:49;;;;;;;25.30;11.73;;;1.10;99.90;;;;;;5151538;27;20057;-71
2023/01/26 03:27:38;;;;;;;28.38;12.73;;;1.80;99.90;;;;;;5171840;27;20053;-72
2023/01/26 03:30:04;;;;;;;26.83;12.93;;;1.20;99.90;;;;;;5144314;27;20117;-72
2023/01/26 03:32:29;;;;;;;27.15;11.95;;;1.10;99.90;;;;;;5171226;27;20045;-72
2023/01/26 03:34:55;;;;;;;25.92;11.88;;;1.10;99.90;;;;;;5153456;27;20034;-72
2023/01/26 03:37:21;;;;;;;32.67;12.70;;;1.20;99.90;;;;;;5171600;27;20121;-72
2023/01/26 03:56:31;;;;;;;26.52;11.35;;;1.30;99.90;;;;;;5081310;27;20563;-71
2023/01/26 03:59:09;;;;;;;28.67;12.32;;;1.30;99.90;;;;;;5170839;27;20046;-72
2023/01/26 04:01:38;;;;;;;30.15;12.50;;;1.20;99.90;;;;;;5171461;27;20578;-72
2023/01/26 04:09:35;;;;;;;28.55;12.55;;;2.30;99.90;;;;;;5170581;27;20057;-72
2023/01/26 04:12:02;;;;;;;24.65;11.68;;;1.40;99.90;;;;;;5169929;27;20144;-72
2023/01/26 04:22:44;;;;;;;32.28;13.40;;;1.40;99.90;;;;;;5157571;27;20402;-72
2023/01/26 04:25:15;;;;;;;30.85;14.02;;;1.40;99.90;;;;;;5155074;27;20035;-72
2023/01/26 04:27:41;;;;;;;34.05;14.15;;;1.40;99.90;;;;;;5156547;27;20107;-72
2023/01/26 04:30:15;;;;;;;28.30;12.52;;;1.40;99.90;;;;;;5157086;27;20038;-72
2023/01/26 04:32:44;;;;;;;35.25;14.30;;;1.40;99.90;;;;;;5138544;27;20126;-72
2023/01/26 04:35:10;;;;;;;35.65;13.52;;;1.60;99.90;;;;;;5137726;27;20482;-72
2023/01/26 04:37:37;;;;;;;35.78;13.98;;;1.60;99.90;;;;;;5156024;27;20070;-73
2023/01/26 04:40:04;;;;;;;36.47;13.93;;;1.60;99.90;;;;;;5157064;27;20039;-72
2023/01/26 04:42:29;;;;;;;39.30;14.68;;;1.60;99.90;;;;;;5156965;27;20126;-72
2023/01/26 04:44:55;;;;;;;38.20;15.07;;;1.60;99.90;;;;;;5156222;27;20298;-72
2023/01/26 04:47:21;;;;;;;40.33;15.63;;;1.60;99.90;;;;;;5154885;27;20046;-72
2023/01/26 04:49:47;;;;;;;37.42;14.80;;;1.60;99.90;;;;;;5147973;27;20044;-73
2023/01/26 04:52:13;;;;;;;40.38;15.52;;;1.50;99.90;;;;;;5137861;27;20479;-73
2023/01/26 04:54:39;;;;;;;42.28;16.15;;;1.60;99.90;;;;;;5149006;27;20041;-73
2023/01/26 04:57:05;;;;;;;39.70;15.07;;;3.30;99.90;;;;;;5138309;27;20038;-72
2023/01/26 04:59:31;;;;;;;41.22;15.02;;;1.60;99.90;;;;;;5137858;27;20050;-72
2023/01/26 05:01:56;;;;;;;43.55;15.82;;;1.60;99.90;;;;;;5138487;27;20039;-73
2023/01/26 05:04:22;;;;;;;40.80;15.38;;;1.60;99.90;;;;;;5137468;27;20491;-73
2023/01/26 05:06:51;;;;;;;43.25;16.38;;;1.70;99.90;;;;;;5156249;27;20054;-72
2023/01/26 05:09:16;;;;;;;39.90;15.48;;;1.70;99.90;;;;;;5137480;27;20057;-72
2023/01/26 05:11:42;;;;;;;43.63;15.50;;;1.70;99.90;;;;;;5154437;27;20432;-72
2023/01/26 05:14:07;;;;;;;48.28;14.88;;;2.80;99.90;;;;;;5135920;27;20118;-72
2023/01/26 05:16:33;;;;;;;50.67;16.63;;;1.80;99.90;;;;;;5137942;27;20462;-72
2023/01/26 05:18:59;;;;;;;48.35;17.05;;;1.80;99.90;;;;;;5137371;27;20045;-72
2023/01/26 05:21:26;;;;;;;53.10;16.88;;;1.80;99.90;;;;;;5137965;27;20038;-73
2023/01/26 05:23:52;;;;;;;43.63;15.98;;;1.80;99.90;;;;;;5154443;27;20042;-72
2023/01/26 05:26:18;;;;;;;54.05;17.35;;;1.90;99.90;;;;;;5137191;27;20429;-73
2023/01/26 05:28:43;;;;;;;50.35;15.77;;;1.90;99.90;;;;;;5119046;27;20038;-72
2023/01/26 05:31:09;;;;;;;48.33;15.93;;;1.90;99.90;;;;;;5155177;27;20055;-72
2023/01/26 05:33:34;;;;;;;56.90;17.73;;;2.00;99.90;;;;;;5155363;27;20038;-73
2023/01/26 05:36:04;;;;;;;51.47;16.25;;;2.00;99.90;;;;;;5136980;27;20045;-73
2023/01/26 05:38:30;;;;;;;57.60;16.23;;;2.10;99.90;;;;;;5155605;27;20043;-73
2023/01/26 05:40:56;;;;;;;49.95;14.75;;;2.20;99.90;;;;;;5155477;27;20038;-73
2023/01/26 05:43:21;;;;;;;57.85;15.50;;;2.20;99.90;;;;;;5153597;27;20483;-72
2023/01/26 05:45:47;;;;;;;58.05;15.95;;;2.40;99.90;;;;;;5155323;27;20482;-72
2023/01/26 05:48:13;;;;;;;46.08;15.57;;;2.40;99.90;;;;;;5142326;27;20145;-73
2023/01/26 05:50:39;;;;;;;53.42;15.52;;;2.50;99.90;;;;;;5154400;27;20494;-73
2023/01/26 05:53:05;;;;;;;57.38;16.50;;;2.50;99.90;;;;;;5155224;27;20478;-72
2023/01/26 05:55:30;;;;;;;51.83;15.38;;;2.50;99.90;;;;;;5144058;27;20045;-72
2023/01/26 05:57:56;;;;;;;56.85;16.02;;;2.60;99.90;;;;;;5155036;27;20043;-73
2023/01/26 06:00:22;;;;;;;60.00;16.23;;;2.70;99.90;;;;;;5155080;27;20042;-73
2023/01/26 06:02:48;;;;;;;60.45;17.23;;;2.70;99.90;;;;;;5154275;27;20081;-73
2023/01/26 06:05:14;;;;;;;54.75;16.27;;;2.60;99.90;;;;;;5118233;27;20069;-73
2023/01/26 06:07:40;;;;;;;50.38;14.27;;;2.70;99.90;;;;;;5154560;27;20095;-73
2023/01/26 06:10:06;;;;;;;56.83;15.60;;;2.60;99.90;;;;;;5154615;27;20099;-73
2023/01/26 06:12:34;;;;;;;57.28;14.77;;;2.70;99.90;;;;;;5136077;27;20490;-72
2023/01/26 06:15:01;;;;;;;52.83;14.40;;;2.70;99.90;;;;;;5154245;27;20474;-73
2023/01/26 06:17:27;;;;;;;58.42;14.82;;;2.70;99.90;;;;;;5136038;27;20091;-72
2023/01/26 06:19:53;;;;;;;63.35;14.60;;;2.70;99.90;;;;;;5154791;27;20042;-72
2023/01/26 06:22:18;;;;;;;50.95;14.43;;;2.70;99.90;;;;;;5135926;27;20541;-73
2023/01/26 06:24:44;;;;;;;58.13;13.70;;;2.70;99.90;;;;;;5135087;27;20046;-73
2023/01/26 06:27:15;;;;;;;60.15;12.40;;;4.30;99.90;;;;;;5152693;27;20160;-72
2023/01/26 06:29:41;;;;;;;48.95;11.40;;;3.40;99.90;;;;;;5133461;27;20042;-73
2023/01/26 06:32:09;;;;;;;55.83;11.48;;;4.20;99.90;;;;;;5138589;27;20051;-72
2023/01/26 06:34:35;;;;;;;50.38;9.45;;;3.40;99.90;;;;;;5116899;27;20034;-73
2023/01/26 06:37:01;;;;;;;53.13;9.70;;;3.10;99.90;;;;;;5153910;27;20039;-73
2023/01/26 06:39:26;;;;;;;46.95;8.27;;;3.60;99.90;;;;;;5154206;27;20483;-73
2023/01/26 06:41:52;;;;;;;51.08;9.15;;;3.30;99.90;;;;;;5154134;27;20497;-73
2023/01/26 06:44:17;;;;;;;46.00;9.43;;;3.40;99.90;;;;;;5120249;27;20047;-73
2023/01/26 06:46:43;;;;;;;44.90;7.72;;;3.50;99.90;;;;;;5152231;27;20121;-73
2023/01/26 06:49:09;;;;;;;48.10;7.47;;;4.40;99.90;;;;;;5133197;27;20057;-73
2023/01/26 06:51:41;;;;;;;55.60;7.95;;;3.60;99.90;;;;;;5135887;27;20065;-72
2023/01/26 06:54:11;;;;;;;50.28;6.55;;;5.00;99.90;;;;;;5120056;27;20134;-73
2023/01/26 06:56:37;;;;;;;40.67;6.40;;;3.70;99.90;;;;;;5132627;27;20093;-72
2023/01/26 06:59:03;;;;;;;49.25;6.97;;;3.70;99.90;;;;;;5129348;27;20458;-72
2023/01/26 07:01:31;;;;;;;49.53;6.57;;;3.70;99.90;;;;;;5153701;27;20030;-73
2023/01/26 07:03:57;;;;;;;48.63;6.45;;;3.80;99.90;;;;;;5135447;27;20422;-72
2023/01/26 07:06:22;;;;;;;42.17;6.32;;;4.90;99.90;;;;;;5153840;27;20058;-75
2023/01/26 07:08:48;;;;;;;51.50;7.18;;;3.70;99.90;;;;;;5135483;27;20043;-72
2023/01/26 07:11:15;;;;;;;54.15;6.57;;;4.30;99.90;;;;;;5153915;27;20122;-72
2023/01/26 07:13:41;;;;;;;42.15;6.97;;;3.60;99.90;;;;;;5153697;27;20431;-73
2023/01/26 07:16:09;;;;;;;52.78;6.55;;;4.10;99.90;;;;;;5134980;27;20055;-72
2023/01/26 07:18:36;;;;;;;54.40;5.95;;;3.70;99.90;;;;;;5117815;27;20043;-73
2023/01/26 07:21:07;;;;;;;62.40;6.93;;;3.70;99.90;;;;;;5153648;27;20047;-73
2023/01/26 07:23:33;;;;;;;53.35;6.55;;;4.20;99.90;;;;;;5153479;27;20487;-73
2023/01/26 07:26:01;;;;;;;56.50;6.18;;;3.70;99.90;;;;;;5115898;27;20100;-73
2023/01/26 07:28:29;;;;;;;56.97;7.28;;;4.50;99.90;;;;;;5134984;27;20057;-73
2023/01/26 07:30:59;;;;;;;49.85;6.47;;;4.30;99.90;;;;;;5134809;27;20038;-74
2023/01/26 07:33:24;;;;;;;44.72;7.80;;;4.30;99.90;;;;;;5134913;27;20043;-73
2023/01/26 07:35:55;;;;;;;52.80;6.60;;;3.90;99.90;;;;;;5135328;27;20045;-79
2023/01/26 07:38:20;;;;;;;53.60;6.43;;;3.90;99.90;;;;;;5134213;27;20046;-78
2023/01/26 07:40:46;;;;;;;56.40;7.00;;;3.90;99.90;;;;;;5153771;27;20502;-79
2023/01/26 07:43:13;;;;;;;49.58;7.30;;;4.00;99.90;;;;;;5152906;27;20487;-79
2023/01/26 07:45:39;;;;;;;43.47;6.97;;;4.00;99.90;;;;;;5134943;27;20125;-80
2023/01/26 07:48:05;;;;;;;43.30;6.63;;;4.00;99.90;;;;;;5130094;28;20449;-79
2023/01/26 07:50:31;;;;;;;43.85;6.63;;;4.00;99.90;;;;;;5132357;27;20414;-80
2023/01/26 07:52:59;;;;;;;42.15;6.60;;;4.00;99.90;;;;;;5137331;27;20049;-79
2023/01/26 07:55:25;;;;;;;51.15;6.63;;;4.00;99.90;;;;;;5139003;27;20412;-79
2023/01/26 07:57:51;;;;;;;46.97;7.15;;;4.00;99.90;;;;;;5139654;27;20035;-79
2023/01/26 08:00:17;;;;;;;35.25;6.93;;;4.00;99.90;;;;;;5158008;27;20094;-79
2023/01/26 08:02:43;;;;;;;42.85;6.90;;;3.90;99.90;;;;;;5157484;27;20362;-80
2023/01/26 08:05:09;;;;;;;37.35;7.28;;;3.90;99.90;;;;;;5157300;27;20039;-80
2023/01/26 08:07:35;;;;;;;49.83;6.28;;;3.90;99.90;;;;;;5138774;27;20061;-80
2023/01/26 08:10:01;;;;;;;49.67;7.03;;;4.10;99.90;;;;;;5157046;27;20371;-79
2023/01/26 08:12:27;;;;;;;45.78;7.47;;;3.90;99.90;;;;;;5157534;27;20043;-79
2023/01/26 08:14:53;;;;;;;42.28;6.80;;;4.80;99.90;;;;;;5138846;27;20445;-80
2023/01/26 08:17:18;;;;;;;50.83;7.75;;;4.50;99.90;;;;;;5138274;27;20046;-79
2023/01/26 08:19:47;;;;;;;44.00;6.95;;;3.90;99.90;;;;;;5138672;27;20391;-79
2023/01/26 08:22:13;;;;;;;42.05;7.38;;;5.40;99.90;;;;;;5138745;27;20078;-80
2023/01/26 08:24:38;;;;;;;46.00;5.93;;;4.00;99.90;;;;;;5157124;27;20127;-80
2023/01/26 08:27:04;;;;;;;44.25;7.40;;;5.10;99.90;;;;;;5154726;27;20552;-79
2023/01/26 08:29:29;;;;;;;36.45;6.22;;;4.10;99.90;;;;;;5157207;27;20078;-79
2023/01/26 08:31:55;;;;;;;39.08;6.25;;;5.50;99.90;;;;;;5138111;27;20048;-80
2023/01/26 08:34:21;;;;;;;43.28;5.80;;;4.40;99.90;;;;;;5117148;27;20057;-79
2023/01/26 08:36:47;;;;;;;34.58;5.63;;;4.50;99.90;;;;;;5135902;27;20070;-79
2023/01/26 08:39:13;;;;;;;43.72;6.93;;;5.80;99.90;;;;;;5135793;27;20041;-79
2023/01/26 08:41:39;;;;;;;38.08;5.90;;;4.80;99.90;;;;;;5133744;27;20446;-80
2023/01/26 08:44:05;;;;;;;43.67;6.93;;;4.90;99.90;;;;;;5135710;27;20122;-79
2023/01/26 08:46:31;;;;;;;50.33;6.22;;;5.10;99.90;;;;;;5137747;27;20455;-79
2023/01/26 08:48:57;;;;;;;34.95;6.25;;;;;;;;;;5129175;27;20372;-79
2023/01/26 08:51:24;;;;;;;44.42;7.43;;;;;;;;;;5134761;27;20043;-79
2023/01/26 08:53:50;;;;;;;42.97;6.13;;;;;;;;;;5128902;27;20080;-79
2023/01/26 08:56:16;;;;;;;44.17;6.47;;;;;;;;;;5146236;27;20035;-79
2023/01/26 08:58:42;;;;;;;38.33;6.40;;;;;;;;;;5119958;27;20091;-79
2023/01/26 09:01:11;;;;;;;38.08;5.88;;;;;;;;;;5156260;27;20050;-78
2023/01/26 09:03:37;;;;;;;42.05;5.38;;;;;;;;;;5155103;27;20153;-78
2023/01/26 09:06:04;;;;;;;33.28;6.22;;;;;;;;;;5155727;27;20059;-79
2023/01/26 09:08:30;;;;;;;31.80;5.50;;;;;;;;;;5137717;27;20047;-78
2023/01/26 09:10:56;;;;;;;25.83;5.70;;;;;;;;;;5155928;27;20384;-78
2023/01/26 09:13:23;;;;;;;32.65;5.30;;;;;;;;;;5137682;27;20416;-78
2023/01/26 09:15:49;;;;;;;29.55;4.95;;;;;;;;;;5137057;27;20513;-78
2023/01/26 09:18:15;;;;;;;32.15;4.60;;;;;;;;;;5119755;27;20043;-78
2023/01/26 09:20:41;;;;;;;31.67;5.13;;;;;;;;;;5120057;27;20046;-78
2023/01/26 09:23:07;;;;;;;31.98;5.68;;;;;;;;;;5137202;27;20398;-78
2023/01/26 09:25:36;;;;;;;25.05;5.47;;;;;;;;;;5136808;27;20460;-78
2023/01/26 09:28:03;;;;;;;23.25;5.13;;;;;;;;;;5119374;27;20107;-78
2023/01/26 09:30:29;;;;;;;22.08;4.35;;;;;;;;;;5137703;27;20126;-78
2023/01/26 09:32:58;;;;;;;26.88;4.85;;;;;;;;;;5133942;27;20054;-78
2023/01/26 09:35:25;;;;;;;29.05;5.00;;;;;;;;;;5139896;27;20121;-78
2023/01/26 09:37:51;;;;;;;18.58;4.40;;;;;;;;;;5154893;27;20058;-78
2023/01/26 09:40:37;;;;;;;26.00;4.70;;;;;;;;;;5133450;27;20066;-78
2023/01/26 09:43:04;;;;;;;;;;;;;;;;;;5085684;27;20419;-78
2023/01/26 09:45:35;;;;;;;26.23;5.53;;;;;;;;;;5154782;27;19971;-78
2023/01/26 09:48:06;;;;;;;27.02;5.55;;;;;;;;;;5126870;27;20372;-79
2023/01/26 09:50:38;;;;;;;22.85;4.43;;;;;;;;;;5138931;27;20042;-75
2023/01/26 09:53:14;;;;;;;31.50;4.50;;;;;;;;;;5154974;27;20038;-75
2023/01/26 09:55:41;;;;;;;26.67;4.55;;;;;;;;;;5153745;27;20035;-75
2023/01/26 09:58:13;;;;;;;25.20;4.85;;;;;;;;;;5152943;27;20050;-74
2023/01/26 10:00:39;;;;;;;23.90;4.78;;;;;;;;;;5124903;27;20042;-75
2023/01/26 10:03:29;;;;;;;22.02;4.55;;;;;;;;;;5133242;27;20047;-76
2023/01/26 10:06:13;;;;;;;23.77;4.30;;;;;;;;;;5104174;27;20376;-75
2023/01/26 10:08:41;;;;;;;25.08;4.15;;;;;;;;;;5118599;27;20092;-75
2023/01/26 10:11:14;;;;;;;25.27;4.93;;;;;;;;;;5154698;27;20048;-76
2023/01/26 10:13:43;;;;;;;23.48;3.67;;;;;;;;;;5154420;27;20045;-76
2023/01/26 10:16:11;;;;;;;21.73;4.60;;;;;;;;;;5119548;27;20039;-76
2023/01/26 10:18:47;;;;;;;18.25;4.45;;;;;;;;;;5115452;27;20142;-76
2023/01/26 10:21:14;;;;;;;21.40;4.13;;;;;;;;;;5132963;27;20126;-76
2023/01/26 10:23:45;;;;;;;21.77;4.25;;;;;;;;;;5143813;27;20530;-76
2023/01/26 10:26:13;;;;;;;23.42;4.75;;;;;;;;;;5115991;27;20055;-76
2023/01/26 10:28:40;;;;;;;19.83;4.28;;;;;;;;;;5126982;27;20041;-75
2023/01/26 10:31:11;;;;;;;18.52;3.72;;;;;;;;;;5127201;27;20047;-76
2023/01/26 10:33:38;;;;;;;22.80;4.45;;;;;;;;;;5134739;27;20041;-76
2023/01/26 10:36:05;;;;;;;20.33;3.72;;;;;;;;;;5127933;27;20043;-76
2023/01/26 10:38:34;;;;;;;24.35;4.50;;;;;;;;;;5135432;27;20127;-76
2023/01/26 10:41:02;;;;;;;19.25;3.63;;;;;;;;;;5135453;27;20463;-76
2023/01/26 10:43:28;;;;;;;25.65;4.53;;;;;;;;;;5150889;27;20027;-76
2023/01/26 10:45:54;;;;;;;21.65;4.10;;;;;;;;;;5115058;27;20399;-76
2023/01/26 10:48:23;;;;;;;17.75;4.05;;;;;;;;;;5126063;27;20559;-76
2023/01/26 10:50:49;;;;;;;20.00;4.05;;;;;;;;;;5094910;28;20052;-76
2023/01/26 10:53:28;;;;;;;16.20;4.32;;;;;;;;;;5112835;28;20122;-76
2023/01/26 10:55:59;;;;;;;22.08;4.20;;;;;;;;;;5093187;28;20376;-76
2023/01/26 10:58:40;;;;;;;17.90;3.55;;;;;;;;;;5094510;28;20043;-76
2023/01/26 11:01:11;;;;;;;17.25;3.50;;;;;;;;;;5111734;28;20043;-76
2023/01/26 11:03:38;;;;;;;17.65;3.13;;;;;;;;;;5110863;28;20499;-74
2023/01/26 11:06:07;;;;;;;19.35;3.45;;;;;;;;;;5093488;28;20057;-74
2023/01/26 11:08:34;;;;;;;18.98;4.07;;;;;;;;;;5112809;28;20040;-74
2023/01/26 11:11:02;;;;;;;18.05;3.53;;;;;;;;;;5093574;28;20083;-75
2023/01/26 11:13:29;;;;;;;16.35;3.90;;;;;;;;;;5075422;28;20044;-75
2023/01/26 11:16:11;;;;;;;18.35;3.55;;;;;;;;;;5077287;28;20047;-75
2023/01/26 11:18:41;;;;;;;18.88;3.53;;;;;;;;;;5094245;28;20035;-76
2023/01/26 11:21:10;;;;;;;21.23;3.30;;;;;;;;;;5094232;28;20083;-76
2023/01/26 11:23:53;;;;;;;14.93;3.30;;;5.20;99.90;;;;;;5076819;28;20044;-76
2023/01/26 11:26:49;;;;;;;15.43;3.30;;;16.20;99.90;;;;;;5076272;28;20040;-75
2023/01/26 11:29:41;;;;;;;13.13;3.58;;;16.70;99.90;;;;;;5081590;28;20047;-75
2023/01/26 11:32:32;;;;;;;11.40;2.75;;;17.90;99.90;;;;;;5098602;28;20126;-76
2023/01/26 11:35:35;;;;;;;14.07;3.05;;;18.70;99.90;;;;;;5116441;28;20449;-76
2023/01/26 11:38:25;;;;;;;14.63;3.05;;;19.10;99.90;;;;;;5081213;28;20500;-76
2023/01/26 11:41:02;;;;;;;13.50;2.88;;;19.90;99.90;;;;;;5116595;28;20044;-76
2023/01/26 11:43:56;;;;;;;12.27;2.75;;;20.00;99.90;;;;;;5098381;28;20501;-76
2023/01/26 11:46:41;;;;;;;12.90;3.03;;;19.00;99.20;;;;;;5097843;28;20050;-76
2023/01/26 11:49:35;;;;;;;14.73;2.72;;;17.70;99.90;;;;;;5109798;27;20051;-75
2023/01/26 11:52:20;;;;;;;12.90;2.90;;;16.40;99.90;;;;;;5100571;27;20047;-76
2023/01/26 11:55:12;;;;;;;15.52;2.88;;;15.30;99.90;;;;;;5134761;27;20108;-78
2023/01/26 11:58:00;;;;;;;12.63;2.67;;;14.60;99.90;;;;;;5114009;27;20427;-76
2023/01/26 12:00:49;;;;;;;18.63;3.33;;;14.00;99.90;;;;;;5115506;27;20406;-76
2023/01/26 12:03:33;;;;;;;15.45;3.00;;;13.40;99.90;;;;;;5133287;27;20039;-75
2023/01/26 12:06:06;;;;;;;15.80;3.17;;;12.90;99.90;;;;;;5115132;27;20047;-80
2023/01/26 12:08:46;;;;;;;15.23;3.47;;;;;;;;;;5136424;27;20539;-79
2023/01/26 12:11:22;;;;;;;20.70;3.60;;;;;;;;;;5136682;27;20073;-78
2023/01/26 12:13:48;;;;;;;;;;;;;;;;;;5136475;27;20115;-79
2023/01/26 12:16:14;;;;;;;;;;;;;;;;;;5115584;27;20015;-78
2023/01/26 12:18:47;;;;;;;19.80;3.28;;;;;;;;;;5117038;27;19958;-79
2023/01/26 12:21:13;;;;;;;18.10;3.13;;;;;;;;;;5101349;27;20050;-78
2023/01/26 12:24:01;;;;;;;14.35;3.10;;;;;;;;;;5118076;27;20428;-79
2023/01/26 12:26:30;;;;;;;16.40;2.97;;;;;;;;;;5117549;27;20511;-79
2023/01/26 12:29:06;;;;;;;15.68;3.20;;;;;;;;;;5117879;27;20062;-78
2023/01/26 12:31:40;;;;;;;12.15;3.13;;;;;;;;;;5117376;27;20061;-77
2023/01/26 12:34:10;;;;;;;19.58;3.30;;;;;;;;;;5117856;27;20047;-76
2023/01/26 12:36:48;;;;;;;15.50;3.60;;;;;;;;;;5117650;27;20047;-77
2023/01/26 12:39:20;;;;;;;17.17;3.35;;;;;;;;;;5116030;27;20054;-77
2023/01/26 12:41:56;;;;;;;16.63;3.08;;;;;;;;;;5116429;27;20043;-77
2023/01/26 12:44:22;;;;;;;;;;;;;;;;;;5114395;27;20450;-77
2023/01/26 12:46:58;;;;;;;14.73;2.40;;;;;;;;;;5116842;27;20014;-77
2023/01/26 12:49:28;;;;;;;9.15;2.33;;;;;;;;;;5134696;27;20042;-77
2023/01/26 12:51:56;;;;;;;12.60;2.20;;;;;;;;;;5113484;27;20126;-77
2023/01/26 12:54:31;;;;;;;10.82;2.35;;;;;;;;;;5131577;27;20035;-77
2023/01/26 12:56:59;;;;;;;9.55;2.25;;;;;;;;;;5114656;27;20126;-77
2023/01/26 12:59:30;;;;;;;11.43;2.30;;;;;;;;;;5115396;27;20039;-77
2023/01/26 13:01:56;;;;;;;13.48;2.72;;;;;;;;;;5115502;27;20092;-76
2023/01/26 13:04:23;;;;;;;9.60;2.40;;;;;;;;;;5133430;27;20035;-76
2023/01/26 13:07:02;;;;;;;14.60;2.45;;;;;;;;;;5135230;27;20495;-76
2023/01/26 13:09:28;;;;;;;12.40;2.20;;;;;;;;;;5100148;27;20471;-77
2023/01/26 13:11:58;;;;;;;15.55;2.80;;;;;;;;;;5116832;27;20035;-76
2023/01/26 13:14:24;;;;;;;10.77;2.33;;;;;;;;;;5100002;27;20039;-77
2023/01/26 13:16:50;;;;;;;12.05;2.53;;;;;;;;;;5135316;27;20088;-77
2023/01/26 13:19:35;;;;;;;10.55;2.30;;;;;;;;;;5116769;27;20533;-76
2023/01/26 13:22:01;;;;;;;11.30;2.20;;;;;;;;;;5135684;27;20174;-76
2023/01/26 13:24:27;;;;;;;11.43;2.45;;;;;;;;;;5135094;27;20054;-77
2023/01/26 13:26:55;;;;;;;10.88;2.20;;;;;;;;;;5116636;27;20055;-76
2023/01/26 13:29:24;;;;;;;12.50;2.15;;;;;;;;;;5135365;27;20054;-77
2023/01/26 13:32:10;;;;;;;10.00;2.63;;;;;;;;;;5135070;27;20047;-77
2023/01/26 13:34:36;;;;;;;;;;;;;;;;;;5076075;27;20412;-77
2023/01/26 13:37:09;;;;;;;13.60;2.58;;;;;;;;;;5135011;27;19930;-77
2023/01/26 13:39:36;;;;;;;13.80;2.80;;;;;;;;;;5134853;27;20488;-76
2023/01/26 13:42:11;;;;;;;8.25;2.03;;;;;;;;;;5116426;27;20035;-76
2023/01/26 13:44:40;;;;;;;16.00;2.75;;;12.60;99.90;;;;;;5116167;27;20039;-77
2023/01/26 13:47:16;;;;;;;20.08;3.35;;;9.60;99.90;;;;;;5116626;27;20043;-77
2023/01/26 13:49:42;;;;;;;19.35;3.17;;;9.50;99.90;;;;;;5111555;28;20040;-77
2023/01/26 13:52:24;;;;;;;13.95;3.05;;;9.50;99.90;;;;;;5095922;28;20044;-76
2023/01/26 13:54:51;;;;;;;17.25;3.30;;;9.40;99.90;;;;;;5095667;28;20096;-77
2023/01/26 13:57:26;;;;;;;17.15;2.70;;;10.80;99.90;;;;;;5095663;28;20084;-77
2023/01/26 13:59:59;;;;;;;17.20;2.67;;;9.30;99.90;;;;;;5095678;28;20047;-77
2023/01/26 14:02:31;;;;;;;14.02;2.85;;;9.30;99.90;;;;;;5113570;28;20048;-77
2023/01/26 14:04:58;;;;;;;19.63;3.08;;;9.30;99.90;;;;;;5113650;28;20402;-77
2023/01/26 14:07:29;;;;;;;15.27;3.35;;;9.90;99.90;;;;;;5098158;28;20105;-77
2023/01/26 14:09:58;;;;;;;17.85;3.17;;;9.10;99.90;;;;;;5095022;28;20090;-77